sensor_id;sensor_type;location;lat;lon;timestamp;P1;durP1;ratioP1;P2;durP2;ratioP2
49416;SDS011;35290;39.550;8.786;2023-04-06T00:01:24;6.00;;;2.95;;
49416;SDS011;35290;39.550;8.786;2023-04-06T00:03:49;8.30;;;2.70;;
49416;SDS011;35290;39.550;8.786;2023-04-06T00:06:14;6.18;;;2.40;;
49416;SDS011;35290;39.550;8.786;2023-04-06T00:08:40;8.32;;;2.78;;
49416;SDS011;35290;39.550;8.786;2023-04-06T00:11:06;8.40;;;2.70;;
49416;SDS011;35290;39.550;8.786;2023-04-06T00:13:31;8.68;;;3.10;;
49416;SDS011;35290;39.550;8.786;2023-04-06T00:15:56;7.57;;;3.45;;
49416;SDS011;35290;39.550;8.786;2023-04-06T00:18:22;9.55;;;3.08;;
49416;SDS011;35290;39.550;8.786;2023-04-06T00:20:47;11.60;;;4.05;;
49416;SDS011;35290;39.550;8.786;2023-04-06T00:23:13;8.52;;;3.00;;
49416;SDS011;35290;39.550;8.786;2023-04-06T00:25:38;7.45;;;3.13;;
49416;SDS011;35290;39.550;8.786;2023-04-06T00:28:03;6.25;;;3.20;;
49416;SDS011;35290;39.550;8.786;2023-04-06T00:30:29;11.93;;;3.40;;
49416;SDS011;35290;39.550;8.786;2023-04-06T00:32:54;8.50;;;3.42;;
49416;SDS011;35290;39.550;8.786;2023-04-06T00:35:20;9.68;;;3.63;;
49416;SDS011;35290;39.550;8.786;2023-04-06T00:37:46;6.53;;;2.58;;
49416;SDS011;35290;39.550;8.786;2023-04-06T00:40:11;8.15;;;3.20;;
49416;SDS011;35290;39.550;8.786;2023-04-06T00:42:36;6.63;;;2.72;;
49416;SDS011;35290;39.550;8.786;2023-04-06T00:45:02;8.48;;;2.80;;
49416;SDS011;35290;39.550;8.786;2023-04-06T00:47:27;6.07;;;2.78;;
49416;SDS011;35290;39.550;8.786;2023-04-06T00:49:53;6.45;;;2.70;;
49416;SDS011;35290;39.550;8.786;2023-04-06T00:52:19;6.43;;;2.78;;
49416;SDS011;35290;39.550;8.786;2023-04-06T00:54:45;6.63;;;2.95;;
49416;SDS011;35290;39.550;8.786;2023-04-06T00:57:13;9.20;;;2.92;;
49416;SDS011;35290;39.550;8.786;2023-04-06T00:59:39;7.72;;;3.00;;
49416;SDS011;35290;39.550;8.786;2023-04-06T01:02:05;9.18;;;2.83;;
49416;SDS011;35290;39.550;8.786;2023-04-06T01:04:31;5.85;;;3.40;;
49416;SDS011;35290;39.550;8.786;2023-04-06T01:06:56;10.45;;;4.07;;
49416;SDS011;35290;39.550;8.786;2023-04-06T01:09:21;14.10;;;4.50;;
49416;SDS011;35290;39.550;8.786;2023-04-06T01:11:47;12.13;;;4.40;;
49416;SDS011;35290;39.550;8.786;2023-04-06T01:14:12;9.43;;;3.90;;
49416;SDS011;35290;39.550;8.786;2023-04-06T01:16:37;9.32;;;3.58;;
49416;SDS011;35290;39.550;8.786;2023-04-06T01:19:11;8.98;;;3.20;;
49416;SDS011;35290;39.550;8.786;2023-04-06T01:21:37;8.10;;;3.28;;
49416;SDS011;35290;39.550;8.786;2023-04-06T01:24:03;8.23;;;3.30;;
49416;SDS011;35290;39.550;8.786;2023-04-06T01:26:28;7.80;;;2.95;;
49416;SDS011;35290;39.550;8.786;2023-04-06T01:28:54;5.22;;;3.00;;
49416;SDS011;35290;39.550;8.786;2023-04-06T01:31:20;7.53;;;3.10;;
49416;SDS011;35290;39.550;8.786;2023-04-06T01:33:45;7.03;;;3.15;;
49416;SDS011;35290;39.550;8.786;2023-04-06T01:36:11;9.57;;;3.13;;
49416;SDS011;35290;39.550;8.786;2023-04-06T01:38:36;5.57;;;2.97;;
49416;SDS011;35290;39.550;8.786;2023-04-06T01:41:01;7.38;;;3.10;;
49416;SDS011;35290;39.550;8.786;2023-04-06T01:43:26;7.05;;;3.30;;
49416;SDS011;35290;39.550;8.786;2023-04-06T01:45:52;7.93;;;3.08;;
49416;SDS011;35290;39.550;8.786;2023-04-06T01:48:18;8.43;;;3.40;;
49416;SDS011;35290;39.550;8.786;2023-04-06T01:50:43;6.07;;;2.83;;
49416;SDS011;35290;39.550;8.786;2023-04-06T01:53:08;4.75;;;2.70;;
49416;SDS011;35290;39.550;8.786;2023-04-06T01:55:34;6.95;;;2.63;;
49416;SDS011;35290;39.550;8.786;2023-04-06T01:57:59;7.00;;;2.70;;
49416;SDS011;35290;39.550;8.786;2023-04-06T02:00:25;6.82;;;2.60;;
49416;SDS011;35290;39.550;8.786;2023-04-06T02:02:50;6.90;;;2.88;;
49416;SDS011;35290;39.550;8.786;2023-04-06T02:05:15;4.97;;;2.60;;
49416;SDS011;35290;39.550;8.786;2023-04-06T02:07:41;6.53;;;2.50;;
49416;SDS011;35290;39.550;8.786;2023-04-06T02:10:11;8.00;;;2.70;;
49416;SDS011;35290;39.550;8.786;2023-04-06T02:12:36;6.75;;;2.70;;
49416;SDS011;35290;39.550;8.786;2023-04-06T02:15:01;6.97;;;2.85;;
49416;SDS011;35290;39.550;8.786;2023-04-06T02:17:27;7.63;;;2.70;;
49416;SDS011;35290;39.550;8.786;2023-04-06T02:19:52;6.15;;;2.53;;
49416;SDS011;35290;39.550;8.786;2023-04-06T02:22:17;7.32;;;2.85;;
49416;SDS011;35290;39.550;8.786;2023-04-06T02:24:43;7.28;;;2.75;;
49416;SDS011;35290;39.550;8.786;2023-04-06T02:27:08;6.15;;;2.80;;
49416;SDS011;35290;39.550;8.786;2023-04-06T02:29:33;5.90;;;2.70;;
49416;SDS011;35290;39.550;8.786;2023-04-06T02:31:59;6.05;;;2.58;;
49416;SDS011;35290;39.550;8.786;2023-04-06T02:34:24;6.07;;;2.33;;
49416;SDS011;35290;39.550;8.786;2023-04-06T02:36:49;8.13;;;2.30;;
49416;SDS011;35290;39.550;8.786;2023-04-06T02:39:15;6.05;;;2.60;;
49416;SDS011;35290;39.550;8.786;2023-04-06T02:41:40;7.57;;;2.30;;
49416;SDS011;35290;39.550;8.786;2023-04-06T02:44:06;5.28;;;2.33;;
49416;SDS011;35290;39.550;8.786;2023-04-06T02:46:32;7.93;;;2.67;;
49416;SDS011;35290;39.550;8.786;2023-04-06T02:48:58;6.63;;;2.65;;
49416;SDS011;35290;39.550;8.786;2023-04-06T02:51:25;10.15;;;2.83;;
49416;SDS011;35290;39.550;8.786;2023-04-06T02:53:50;5.57;;;2.58;;
49416;SDS011;35290;39.550;8.786;2023-04-06T02:56:16;5.25;;;2.70;;
49416;SDS011;35290;39.550;8.786;2023-04-06T02:58:41;5.88;;;2.63;;
49416;SDS011;35290;39.550;8.786;2023-04-06T03:01:10;6.07;;;2.55;;
49416;SDS011;35290;39.550;8.786;2023-04-06T03:03:35;9.68;;;3.10;;
49416;SDS011;35290;39.550;8.786;2023-04-06T03:06:06;5.82;;;2.63;;
49416;SDS011;35290;39.550;8.786;2023-04-06T03:08:31;7.25;;;2.88;;
49416;SDS011;35290;39.550;8.786;2023-04-06T03:10:56;7.38;;;3.17;;
49416;SDS011;35290;39.550;8.786;2023-04-06T03:13:22;7.70;;;3.33;;
49416;SDS011;35290;39.550;8.786;2023-04-06T03:15:47;9.07;;;3.03;;
49416;SDS011;35290;39.550;8.786;2023-04-06T03:18:12;6.70;;;3.05;;
49416;SDS011;35290;39.550;8.786;2023-04-06T03:20:38;6.45;;;3.35;;
49416;SDS011;35290;39.550;8.786;2023-04-06T03:23:03;8.57;;;3.60;;
49416;SDS011;35290;39.550;8.786;2023-04-06T03:25:29;7.18;;;3.38;;
49416;SDS011;35290;39.550;8.786;2023-04-06T03:27:55;11.57;;;3.85;;
49416;SDS011;35290;39.550;8.786;2023-04-06T03:30:20;7.78;;;3.72;;
49416;SDS011;35290;39.550;8.786;2023-04-06T03:32:46;10.07;;;4.68;;
49416;SDS011;35290;39.550;8.786;2023-04-06T03:35:11;10.43;;;5.50;;
49416;SDS011;35290;39.550;8.786;2023-04-06T03:37:37;9.55;;;5.38;;
49416;SDS011;35290;39.550;8.786;2023-04-06T03:40:02;12.85;;;5.15;;
49416;SDS011;35290;39.550;8.786;2023-04-06T03:42:28;7.97;;;4.85;;
49416;SDS011;35290;39.550;8.786;2023-04-06T03:44:53;14.48;;;6.20;;
49416;SDS011;35290;39.550;8.786;2023-04-06T03:47:18;25.85;;;8.57;;
49416;SDS011;35290;39.550;8.786;2023-04-06T03:49:44;18.77;;;7.80;;
49416;SDS011;35290;39.550;8.786;2023-04-06T03:52:10;11.30;;;5.60;;
49416;SDS011;35290;39.550;8.786;2023-04-06T03:54:36;10.32;;;4.68;;
49416;SDS011;35290;39.550;8.786;2023-04-06T03:57:01;8.95;;;4.45;;
49416;SDS011;35290;39.550;8.786;2023-04-06T03:59:27;9.75;;;3.85;;
49416;SDS011;35290;39.550;8.786;2023-04-06T04:01:52;7.20;;;3.28;;
49416;SDS011;35290;39.550;8.786;2023-04-06T04:04:18;10.25;;;3.35;;
49416;SDS011;35290;39.550;8.786;2023-04-06T04:06:43;7.63;;;2.80;;
49416;SDS011;35290;39.550;8.786;2023-04-06T04:09:08;5.88;;;3.03;;
49416;SDS011;35290;39.550;8.786;2023-04-06T04:11:34;6.25;;;2.78;;
49416;SDS011;35290;39.550;8.786;2023-04-06T04:13:59;5.70;;;3.13;;
49416;SDS011;35290;39.550;8.786;2023-04-06T04:16:25;7.72;;;3.30;;
49416;SDS011;35290;39.550;8.786;2023-04-06T04:18:50;12.40;;;4.28;;
49416;SDS011;35290;39.550;8.786;2023-04-06T04:21:15;8.40;;;4.32;;
49416;SDS011;35290;39.550;8.786;2023-04-06T04:23:41;14.32;;;4.80;;
49416;SDS011;35290;39.550;8.786;2023-04-06T04:26:06;10.98;;;4.47;;
49416;SDS011;35290;39.550;8.786;2023-04-06T04:28:31;7.72;;;3.53;;
49416;SDS011;35290;39.550;8.786;2023-04-06T04:30:58;8.52;;;3.70;;
49416;SDS011;35290;39.550;8.786;2023-04-06T04:33:23;12.50;;;3.70;;
49416;SDS011;35290;39.550;8.786;2023-04-06T04:35:49;9.68;;;3.45;;
49416;SDS011;35290;39.550;8.786;2023-04-06T04:38:14;6.95;;;3.45;;
49416;SDS011;35290;39.550;8.786;2023-04-06T04:40:40;6.75;;;3.10;;
49416;SDS011;35290;39.550;8.786;2023-04-06T04:43:05;10.85;;;3.03;;
49416;SDS011;35290;39.550;8.786;2023-04-06T04:45:30;7.85;;;3.55;;
49416;SDS011;35290;39.550;8.786;2023-04-06T04:47:56;6.13;;;3.58;;
49416;SDS011;35290;39.550;8.786;2023-04-06T04:50:21;10.18;;;3.72;;
49416;SDS011;35290;39.550;8.786;2023-04-06T04:52:46;9.02;;;4.55;;
49416;SDS011;35290;39.550;8.786;2023-04-06T04:55:12;10.48;;;5.18;;
49416;SDS011;35290;39.550;8.786;2023-04-06T04:57:37;11.23;;;5.60;;
49416;SDS011;35290;39.550;8.786;2023-04-06T05:00:03;11.18;;;6.00;;
49416;SDS011;35290;39.550;8.786;2023-04-06T05:02:28;12.15;;;6.55;;
49416;SDS011;35290;39.550;8.786;2023-04-06T05:04:53;17.50;;;7.22;;
49416;SDS011;35290;39.550;8.786;2023-04-06T05:07:19;14.70;;;8.02;;
49416;SDS011;35290;39.550;8.786;2023-04-06T05:09:45;18.85;;;8.25;;
49416;SDS011;35290;39.550;8.786;2023-04-06T05:12:11;16.42;;;8.13;;
49416;SDS011;35290;39.550;8.786;2023-04-06T05:14:36;19.17;;;8.25;;
49416;SDS011;35290;39.550;8.786;2023-04-06T05:17:01;11.80;;;6.93;;
49416;SDS011;35290;39.550;8.786;2023-04-06T05:19:27;13.27;;;6.32;;
49416;SDS011;35290;39.550;8.786;2023-04-06T05:21:52;11.73;;;6.30;;
49416;SDS011;35290;39.550;8.786;2023-04-06T05:24:17;11.18;;;6.15;;
49416;SDS011;35290;39.550;8.786;2023-04-06T05:26:43;12.52;;;5.57;;
49416;SDS011;35290;39.550;8.786;2023-04-06T05:29:08;12.88;;;5.30;;
49416;SDS011;35290;39.550;8.786;2023-04-06T05:31:33;11.32;;;5.90;;
49416;SDS011;35290;39.550;8.786;2023-04-06T05:33:59;9.38;;;5.10;;
49416;SDS011;35290;39.550;8.786;2023-04-06T05:36:24;11.50;;;5.43;;
49416;SDS011;35290;39.550;8.786;2023-04-06T05:38:50;12.35;;;4.85;;
49416;SDS011;35290;39.550;8.786;2023-04-06T05:41:16;16.60;;;6.65;;
49416;SDS011;35290;39.550;8.786;2023-04-06T05:43:42;20.35;;;9.05;;
49416;SDS011;35290;39.550;8.786;2023-04-06T05:46:07;12.77;;;8.88;;
49416;SDS011;35290;39.550;8.786;2023-04-06T05:48:32;15.98;;;7.28;;
49416;SDS011;35290;39.550;8.786;2023-04-06T05:50:58;13.35;;;7.20;;
49416;SDS011;35290;39.550;8.786;2023-04-06T05:53:24;15.35;;;6.45;;
49416;SDS011;35290;39.550;8.786;2023-04-06T05:55:51;12.80;;;6.32;;
49416;SDS011;35290;39.550;8.786;2023-04-06T05:58:18;12.07;;;6.82;;
49416;SDS011;35290;39.550;8.786;2023-04-06T06:00:43;15.85;;;6.90;;
49416;SDS011;35290;39.550;8.786;2023-04-06T06:03:10;21.00;;;7.32;;
49416;SDS011;35290;39.550;8.786;2023-04-06T06:05:36;14.00;;;7.05;;
49416;SDS011;35290;39.550;8.786;2023-04-06T06:08:01;13.13;;;7.30;;
49416;SDS011;35290;39.550;8.786;2023-04-06T06:10:27;15.80;;;8.65;;
49416;SDS011;35290;39.550;8.786;2023-04-06T06:12:52;13.20;;;8.02;;
49416;SDS011;35290;39.550;8.786;2023-04-06T06:15:18;16.92;;;9.23;;
49416;SDS011;35290;39.550;8.786;2023-04-06T06:17:43;17.92;;;9.60;;
49416;SDS011;35290;39.550;8.786;2023-04-06T06:20:09;15.43;;;10.07;;
49416;SDS011;35290;39.550;8.786;2023-04-06T06:22:35;20.98;;;10.68;;
49416;SDS011;35290;39.550;8.786;2023-04-06T06:25:00;18.13;;;11.48;;
49416;SDS011;35290;39.550;8.786;2023-04-06T06:27:25;20.73;;;12.63;;
49416;SDS011;35290;39.550;8.786;2023-04-06T06:29:51;23.92;;;12.05;;
49416;SDS011;35290;39.550;8.786;2023-04-06T06:32:16;21.83;;;12.85;;
49416;SDS011;35290;39.550;8.786;2023-04-06T06:34:42;26.40;;;12.43;;
49416;SDS011;35290;39.550;8.786;2023-04-06T06:37:07;18.52;;;12.15;;
49416;SDS011;35290;39.550;8.786;2023-04-06T06:39:32;20.17;;;11.95;;
49416;SDS011;35290;39.550;8.786;2023-04-06T06:41:57;16.95;;;9.18;;
49416;SDS011;35290;39.550;8.786;2023-04-06T06:44:25;41.53;;;23.83;;
49416;SDS011;35290;39.550;8.786;2023-04-06T06:46:51;52.85;;;31.92;;
49416;SDS011;35290;39.550;8.786;2023-04-06T06:49:16;29.75;;;16.73;;
49416;SDS011;35290;39.550;8.786;2023-04-06T06:51:41;18.92;;;10.82;;
49416;SDS011;35290;39.550;8.786;2023-04-06T06:54:07;18.92;;;10.10;;
49416;SDS011;35290;39.550;8.786;2023-04-06T06:56:32;13.65;;;8.85;;
49416;SDS011;35290;39.550;8.786;2023-04-06T06:58:57;14.82;;;7.00;;
49416;SDS011;35290;39.550;8.786;2023-04-06T07:01:23;12.75;;;6.50;;
49416;SDS011;35290;39.550;8.786;2023-04-06T07:03:48;10.13;;;4.88;;
49416;SDS011;35290;39.550;8.786;2023-04-06T07:06:23;11.55;;;4.95;;
49416;SDS011;35290;39.550;8.786;2023-04-06T07:08:51;11.25;;;4.65;;
49416;SDS011;35290;39.550;8.786;2023-04-06T07:11:19;11.77;;;4.63;;
49416;SDS011;35290;39.550;8.786;2023-04-06T07:13:44;10.13;;;3.70;;
49416;SDS011;35290;39.550;8.786;2023-04-06T07:19:13;10.85;;;3.42;;
49416;SDS011;35290;39.550;8.786;2023-04-06T07:21:38;8.10;;;3.60;;
49416;SDS011;35290;39.550;8.786;2023-04-06T07:24:04;5.85;;;2.58;;
49416;SDS011;35290;39.550;8.786;2023-04-06T07:29:33;9.43;;;2.42;;
49416;SDS011;35290;39.550;8.786;2023-04-06T07:31:58;9.02;;;2.47;;
49416;SDS011;35290;39.550;8.786;2023-04-06T07:34:23;10.63;;;2.38;;
49416;SDS011;35290;39.550;8.786;2023-04-06T07:36:49;8.95;;;2.25;;
49416;SDS011;35290;39.550;8.786;2023-04-06T07:39:14;10.23;;;3.00;;
49416;SDS011;35290;39.550;8.786;2023-04-06T07:41:40;5.55;;;2.42;;
49416;SDS011;35290;39.550;8.786;2023-04-06T07:44:05;3.80;;;2.40;;
49416;SDS011;35290;39.550;8.786;2023-04-06T07:46:31;9.18;;;3.30;;
49416;SDS011;35290;39.550;8.786;2023-04-06T07:48:56;8.25;;;3.45;;
49416;SDS011;35290;39.550;8.786;2023-04-06T07:51:22;8.98;;;3.38;;
49416;SDS011;35290;39.550;8.786;2023-04-06T07:53:49;12.13;;;2.97;;
49416;SDS011;35290;39.550;8.786;2023-04-06T07:59:00;5.75;;;2.30;;
49416;SDS011;35290;39.550;8.786;2023-04-06T08:01:27;4.57;;;2.10;;
49416;SDS011;35290;39.550;8.786;2023-04-06T08:03:52;11.57;;;2.28;;
49416;SDS011;35290;39.550;8.786;2023-04-06T08:09:13;48.10;;;24.83;;
49416;SDS011;35290;39.550;8.786;2023-04-06T08:11:39;45.30;;;25.30;;
49416;SDS011;35290;39.550;8.786;2023-04-06T08:14:04;20.95;;;9.70;;
49416;SDS011;35290;39.550;8.786;2023-04-06T08:16:35;13.70;;;6.53;;
49416;SDS011;35290;39.550;8.786;2023-04-06T08:19:01;6.60;;;2.63;;
49416;SDS011;35290;39.550;8.786;2023-04-06T08:21:27;10.15;;;2.72;;
49416;SDS011;35290;39.550;8.786;2023-04-06T08:23:53;6.32;;;2.90;;
49416;SDS011;35290;39.550;8.786;2023-04-06T08:26:18;5.57;;;2.58;;
49416;SDS011;35290;39.550;8.786;2023-04-06T08:28:43;6.03;;;2.97;;
49416;SDS011;35290;39.550;8.786;2023-04-06T08:31:09;4.13;;;2.63;;
49416;SDS011;35290;39.550;8.786;2023-04-06T08:33:34;8.52;;;2.58;;
49416;SDS011;35290;39.550;8.786;2023-04-06T08:36:08;7.13;;;3.03;;
49416;SDS011;35290;39.550;8.786;2023-04-06T08:40:58;9.10;;;2.93;;
49416;SDS011;35290;39.550;8.786;2023-04-06T08:43:24;7.32;;;3.70;;
49416;SDS011;35290;39.550;8.786;2023-04-06T08:45:52;13.07;;;3.75;;
49416;SDS011;35290;39.550;8.786;2023-04-06T08:48:17;8.95;;;3.10;;
49416;SDS011;35290;39.550;8.786;2023-04-06T08:50:43;5.60;;;2.60;;
49416;SDS011;35290;39.550;8.786;2023-04-06T08:53:09;11.88;;;3.53;;
49416;SDS011;35290;39.550;8.786;2023-04-06T08:55:36;9.27;;;2.53;;
49416;SDS011;35290;39.550;8.786;2023-04-06T08:58:03;7.68;;;2.58;;
49416;SDS011;35290;39.550;8.786;2023-04-06T09:00:29;8.07;;;2.08;;
49416;SDS011;35290;39.550;8.786;2023-04-06T09:02:54;5.25;;;2.10;;
49416;SDS011;35290;39.550;8.786;2023-04-06T09:05:21;6.65;;;2.03;;
49416;SDS011;35290;39.550;8.786;2023-04-06T09:07:48;8.90;;;3.38;;
49416;SDS011;35290;39.550;8.786;2023-04-06T09:10:13;11.35;;;4.03;;
49416;SDS011;35290;39.550;8.786;2023-04-06T09:12:40;6.25;;;2.33;;
49416;SDS011;35290;39.550;8.786;2023-04-06T09:15:06;6.35;;;2.45;;
49416;SDS011;35290;39.550;8.786;2023-04-06T09:17:32;5.18;;;2.15;;
49416;SDS011;35290;39.550;8.786;2023-04-06T09:20:02;8.45;;;2.72;;
49416;SDS011;35290;39.550;8.786;2023-04-06T09:22:37;4.93;;;2.60;;
49416;SDS011;35290;39.550;8.786;2023-04-06T09:25:03;6.95;;;2.25;;
49416;SDS011;35290;39.550;8.786;2023-04-06T09:27:30;9.27;;;2.67;;
49416;SDS011;35290;39.550;8.786;2023-04-06T09:32:53;10.68;;;5.22;;
49416;SDS011;35290;39.550;8.786;2023-04-06T09:35:19;10.85;;;2.78;;
49416;SDS011;35290;39.550;8.786;2023-04-06T09:37:46;5.85;;;2.70;;
49416;SDS011;35290;39.550;8.786;2023-04-06T09:40:12;9.43;;;2.55;;
49416;SDS011;35290;39.550;8.786;2023-04-06T09:42:40;7.95;;;3.33;;
49416;SDS011;35290;39.550;8.786;2023-04-06T09:45:05;6.25;;;2.80;;
49416;SDS011;35290;39.550;8.786;2023-04-06T09:47:31;4.88;;;2.60;;
49416;SDS011;35290;39.550;8.786;2023-04-06T09:49:59;6.18;;;1.90;;
49416;SDS011;35290;39.550;8.786;2023-04-06T09:52:26;6.28;;;1.80;;
49416;SDS011;35290;39.550;8.786;2023-04-06T09:54:51;9.30;;;2.70;;
49416;SDS011;35290;39.550;8.786;2023-04-06T09:59:49;18.63;;;8.68;;
49416;SDS011;35290;39.550;8.786;2023-04-06T10:02:18;5.78;;;1.90;;
49416;SDS011;35290;39.550;8.786;2023-04-06T10:07:26;4.97;;;1.73;;
49416;SDS011;35290;39.550;8.786;2023-04-06T10:09:52;4.18;;;1.63;;
49416;SDS011;35290;39.550;8.786;2023-04-06T10:12:18;9.95;;;2.80;;
49416;SDS011;35290;39.550;8.786;2023-04-06T10:14:44;6.38;;;1.90;;
49416;SDS011;35290;39.550;8.786;2023-04-06T10:17:09;5.35;;;2.10;;
49416;SDS011;35290;39.550;8.786;2023-04-06T10:30:57;5.25;;;2.45;;
49416;SDS011;35290;39.550;8.786;2023-04-06T10:35:48;5.50;;;2.00;;
49416;SDS011;35290;39.550;8.786;2023-04-06T10:38:13;4.90;;;1.60;;
49416;SDS011;35290;39.550;8.786;2023-04-06T10:40:40;4.72;;;1.83;;
49416;SDS011;35290;39.550;8.786;2023-04-06T10:43:39;6.13;;;1.85;;
49416;SDS011;35290;39.550;8.786;2023-04-06T10:45:57;3.85;;;1.73;;
49416;SDS011;35290;39.550;8.786;2023-04-06T10:48:24;4.53;;;1.90;;
49416;SDS011;35290;39.550;8.786;2023-04-06T10:50:51;7.72;;;3.00;;
49416;SDS011;35290;39.550;8.786;2023-04-06T10:53:23;4.70;;;1.85;;
49416;SDS011;35290;39.550;8.786;2023-04-06T10:55:53;6.70;;;2.22;;
49416;SDS011;35290;39.550;8.786;2023-04-06T10:58:19;4.07;;;1.92;;
49416;SDS011;35290;39.550;8.786;2023-04-06T11:00:45;4.78;;;1.80;;
49416;SDS011;35290;39.550;8.786;2023-04-06T11:03:11;4.22;;;1.80;;
49416;SDS011;35290;39.550;8.786;2023-04-06T11:05:37;4.53;;;1.88;;
49416;SDS011;35290;39.550;8.786;2023-04-06T11:08:02;6.95;;;3.10;;
49416;SDS011;35290;39.550;8.786;2023-04-06T11:10:27;5.07;;;2.47;;
49416;SDS011;35290;39.550;8.786;2023-04-06T11:12:55;5.63;;;2.67;;
49416;SDS011;35290;39.550;8.786;2023-04-06T11:15:20;8.55;;;2.10;;
49416;SDS011;35290;39.550;8.786;2023-04-06T11:17:46;4.07;;;2.92;;
49416;SDS011;35290;39.550;8.786;2023-04-06T11:20:11;3.90;;;2.10;;
49416;SDS011;35290;39.550;8.786;2023-04-06T11:22:47;4.18;;;2.30;;
49416;SDS011;35290;39.550;8.786;2023-04-06T11:25:12;6.22;;;2.65;;
49416;SDS011;35290;39.550;8.786;2023-04-06T11:27:38;3.28;;;2.10;;
49416;SDS011;35290;39.550;8.786;2023-04-06T11:30:04;5.45;;;2.88;;
49416;SDS011;35290;39.550;8.786;2023-04-06T11:32:29;4.45;;;1.73;;
49416;SDS011;35290;39.550;8.786;2023-04-06T11:34:55;9.10;;;2.40;;
49416;SDS011;35290;39.550;8.786;2023-04-06T11:37:25;4.70;;;2.00;;
49416;SDS011;35290;39.550;8.786;2023-04-06T11:39:51;7.68;;;3.58;;
49416;SDS011;35290;39.550;8.786;2023-04-06T11:42:24;4.93;;;2.35;;
49416;SDS011;35290;39.550;8.786;2023-04-06T11:44:59;5.43;;;2.17;;
49416;SDS011;35290;39.550;8.786;2023-04-06T11:47:32;2.97;;;1.73;;
49416;SDS011;35290;39.550;8.786;2023-04-06T11:50:13;4.90;;;2.25;;
49416;SDS011;35290;39.550;8.786;2023-04-06T11:52:41;5.28;;;1.70;;
49416;SDS011;35290;39.550;8.786;2023-04-06T11:55:14;5.07;;;2.05;;
49416;SDS011;35290;39.550;8.786;2023-04-06T11:57:40;6.18;;;1.83;;
49416;SDS011;35290;39.550;8.786;2023-04-06T12:00:06;3.67;;;2.22;;
49416;SDS011;35290;39.550;8.786;2023-04-06T12:02:33;4.85;;;2.55;;
49416;SDS011;35290;39.550;8.786;2023-04-06T12:04:58;4.72;;;2.38;;
49416;SDS011;35290;39.550;8.786;2023-04-06T12:07:24;8.27;;;3.05;;
49416;SDS011;35290;39.550;8.786;2023-04-06T12:09:49;6.47;;;2.97;;
49416;SDS011;35290;39.550;8.786;2023-04-06T12:12:15;5.13;;;2.30;;
49416;SDS011;35290;39.550;8.786;2023-04-06T12:14:41;4.75;;;1.83;;
49416;SDS011;35290;39.550;8.786;2023-04-06T12:17:06;7.85;;;2.40;;
49416;SDS011;35290;39.550;8.786;2023-04-06T12:19:31;6.40;;;2.45;;
49416;SDS011;35290;39.550;8.786;2023-04-06T12:21:57;6.47;;;2.00;;
49416;SDS011;35290;39.550;8.786;2023-04-06T12:24:22;6.32;;;3.13;;
49416;SDS011;35290;39.550;8.786;2023-04-06T12:26:48;4.40;;;2.15;;
49416;SDS011;35290;39.550;8.786;2023-04-06T12:29:13;4.80;;;2.03;;
49416;SDS011;35290;39.550;8.786;2023-04-06T12:31:39;4.97;;;1.85;;
49416;SDS011;35290;39.550;8.786;2023-04-06T12:34:06;9.52;;;4.28;;
49416;SDS011;35290;39.550;8.786;2023-04-06T12:36:31;12.57;;;5.10;;
49416;SDS011;35290;39.550;8.786;2023-04-06T12:38:57;37.50;;;20.48;;
49416;SDS011;35290;39.550;8.786;2023-04-06T12:41:22;8.05;;;4.25;;
49416;SDS011;35290;39.550;8.786;2023-04-06T12:43:48;6.45;;;2.53;;
49416;SDS011;35290;39.550;8.786;2023-04-06T12:46:15;3.35;;;2.47;;
49416;SDS011;35290;39.550;8.786;2023-04-06T12:48:40;5.88;;;2.13;;
49416;SDS011;35290;39.550;8.786;2023-04-06T12:51:06;6.05;;;2.13;;
49416;SDS011;35290;39.550;8.786;2023-04-06T12:53:32;6.65;;;2.40;;
49416;SDS011;35290;39.550;8.786;2023-04-06T12:55:58;4.78;;;2.22;;
49416;SDS011;35290;39.550;8.786;2023-04-06T12:58:24;3.00;;;1.70;;
49416;SDS011;35290;39.550;8.786;2023-04-06T13:00:51;3.90;;;1.92;;
49416;SDS011;35290;39.550;8.786;2023-04-06T13:03:17;5.72;;;1.58;;
49416;SDS011;35290;39.550;8.786;2023-04-06T13:05:43;5.55;;;1.88;;
49416;SDS011;35290;39.550;8.786;2023-04-06T13:08:09;3.60;;;1.70;;
49416;SDS011;35290;39.550;8.786;2023-04-06T13:10:35;8.07;;;2.05;;
49416;SDS011;35290;39.550;8.786;2023-04-06T13:13:00;6.50;;;2.10;;
49416;SDS011;35290;39.550;8.786;2023-04-06T13:15:25;3.45;;;1.83;;
49416;SDS011;35290;39.550;8.786;2023-04-06T13:17:51;4.70;;;1.88;;
49416;SDS011;35290;39.550;8.786;2023-04-06T13:20:16;4.90;;;2.55;;
49416;SDS011;35290;39.550;8.786;2023-04-06T13:22:41;3.80;;;2.20;;
49416;SDS011;35290;39.550;8.786;2023-04-06T13:25:07;6.63;;;3.20;;
49416;SDS011;35290;39.550;8.786;2023-04-06T13:27:32;6.28;;;2.88;;
49416;SDS011;35290;39.550;8.786;2023-04-06T13:30:00;5.35;;;2.10;;
49416;SDS011;35290;39.550;8.786;2023-04-06T13:32:26;7.32;;;2.75;;
49416;SDS011;35290;39.550;8.786;2023-04-06T13:34:54;5.47;;;1.90;;
49416;SDS011;35290;39.550;8.786;2023-04-06T13:37:19;4.72;;;2.15;;
49416;SDS011;35290;39.550;8.786;2023-04-06T13:39:44;4.05;;;1.83;;
49416;SDS011;35290;39.550;8.786;2023-04-06T13:42:10;6.78;;;2.20;;
49416;SDS011;35290;39.550;8.786;2023-04-06T13:44:35;5.28;;;2.35;;
49416;SDS011;35290;39.550;8.786;2023-04-06T13:47:00;5.40;;;2.42;;
49416;SDS011;35290;39.550;8.786;2023-04-06T13:49:26;7.05;;;2.33;;
49416;SDS011;35290;39.550;8.786;2023-04-06T13:51:51;6.53;;;2.38;;
49416;SDS011;35290;39.550;8.786;2023-04-06T13:54:17;5.70;;;2.30;;
49416;SDS011;35290;39.550;8.786;2023-04-06T13:56:42;8.88;;;2.03;;
49416;SDS011;35290;39.550;8.786;2023-04-06T13:59:07;3.97;;;2.05;;
49416;SDS011;35290;39.550;8.786;2023-04-06T14:01:33;9.93;;;2.17;;
49416;SDS011;35290;39.550;8.786;2023-04-06T14:03:58;5.90;;;2.22;;
49416;SDS011;35290;39.550;8.786;2023-04-06T14:06:23;4.32;;;2.20;;
49416;SDS011;35290;39.550;8.786;2023-04-06T14:08:48;3.30;;;2.08;;
49416;SDS011;35290;39.550;8.786;2023-04-06T14:11:14;6.82;;;2.30;;
49416;SDS011;35290;39.550;8.786;2023-04-06T14:13:40;5.82;;;2.60;;
49416;SDS011;35290;39.550;8.786;2023-04-06T14:16:06;5.30;;;2.50;;
49416;SDS011;35290;39.550;8.786;2023-04-06T14:18:32;4.15;;;2.13;;
49416;SDS011;35290;39.550;8.786;2023-04-06T14:20:59;5.65;;;2.38;;
49416;SDS011;35290;39.550;8.786;2023-04-06T14:23:24;6.97;;;2.35;;
49416;SDS011;35290;39.550;8.786;2023-04-06T14:25:51;5.95;;;2.80;;
49416;SDS011;35290;39.550;8.786;2023-04-06T14:28:16;5.25;;;2.38;;
49416;SDS011;35290;39.550;8.786;2023-04-06T14:30:42;6.78;;;2.38;;
49416;SDS011;35290;39.550;8.786;2023-04-06T14:33:08;8.40;;;2.50;;
49416;SDS011;35290;39.550;8.786;2023-04-06T14:35:33;6.47;;;2.88;;
49416;SDS011;35290;39.550;8.786;2023-04-06T14:37:58;5.80;;;2.30;;
49416;SDS011;35290;39.550;8.786;2023-04-06T14:40:24;4.22;;;2.10;;
49416;SDS011;35290;39.550;8.786;2023-04-06T14:42:49;8.32;;;4.60;;
49416;SDS011;35290;39.550;8.786;2023-04-06T14:45:19;6.90;;;3.03;;
49416;SDS011;35290;39.550;8.786;2023-04-06T14:47:46;6.13;;;2.55;;
49416;SDS011;35290;39.550;8.786;2023-04-06T14:50:12;4.00;;;2.30;;
49416;SDS011;35290;39.550;8.786;2023-04-06T14:52:37;4.97;;;2.33;;
49416;SDS011;35290;39.550;8.786;2023-04-06T14:55:02;4.00;;;2.60;;
49416;SDS011;35290;39.550;8.786;2023-04-06T14:57:29;8.60;;;4.75;;
49416;SDS011;35290;39.550;8.786;2023-04-06T14:59:54;6.88;;;3.38;;
49416;SDS011;35290;39.550;8.786;2023-04-06T15:02:20;15.48;;;8.60;;
49416;SDS011;35290;39.550;8.786;2023-04-06T15:04:45;6.05;;;4.43;;
49416;SDS011;35290;39.550;8.786;2023-04-06T15:07:10;5.40;;;2.40;;
49416;SDS011;35290;39.550;8.786;2023-04-06T15:09:36;5.82;;;2.00;;
49416;SDS011;35290;39.550;8.786;2023-04-06T15:12:01;8.02;;;2.08;;